createdAt,value
2022-08-28T00:00:30.684Z,21.03
2022-08-28T00:02:58.634Z,21.09
2022-08-28T00:05:29.299Z,21.08
2022-08-28T00:07:57.935Z,21.03
2022-08-28T00:10:26.919Z,21.04
2022-08-28T00:12:57.537Z,20.93
2022-08-28T00:15:32.424Z,21.01
2022-08-28T00:18:00.920Z,20.98
2022-08-28T00:20:29.296Z,20.91
2022-08-28T00:22:57.608Z,20.94
2022-08-28T00:25:27.375Z,20.94
2022-08-28T00:27:57.575Z,21.02
2022-08-28T00:30:26.010Z,21.04
2022-08-28T00:32:55.951Z,21.04
2022-08-28T00:35:24.557Z,21.06
2022-08-28T00:37:55.018Z,21.04
2022-08-28T00:40:28.751Z,20.99
2022-08-28T00:43:04.985Z,20.88
2022-08-28T00:45:39.281Z,20.77
2022-08-28T00:48:08.303Z,20.69
2022-08-28T00:51:00.494Z,20.59
2022-08-28T00:53:33.047Z,20.60
2022-08-28T00:56:08.633Z,20.60
2022-08-28T00:58:43.786Z,20.64
2022-08-28T01:01:13.171Z,20.63
2022-08-28T01:03:43.537Z,20.64
2022-08-28T01:06:14.902Z,20.59
2022-08-28T01:08:46.293Z,20.57
2022-08-28T01:11:19.705Z,20.59
2022-08-28T01:13:48.734Z,20.55
2022-08-28T01:16:19.285Z,20.47
2022-08-28T01:18:48.379Z,20.35
2022-08-28T01:21:22.049Z,20.40
2022-08-28T01:24:02.109Z,20.34
2022-08-28T01:26:29.892Z,20.33
2022-08-28T01:29:01.763Z,20.46
2022-08-28T01:31:31.700Z,20.41
2022-08-28T01:33:59.508Z,20.45
2022-08-28T01:36:29.154Z,20.48
2022-08-28T01:39:02.824Z,20.47
2022-08-28T01:41:30.928Z,20.46
2022-08-28T01:43:59.308Z,20.41
2022-08-28T01:46:27.294Z,20.33
2022-08-28T01:48:55.024Z,20.24
2022-08-28T01:51:24.597Z,20.20
2022-08-28T01:53:52.824Z,20.09
2022-08-28T01:56:20.909Z,20.04
2022-08-28T01:58:48.706Z,20.09
2022-08-28T02:01:21.329Z,20.09
2022-08-28T02:03:49.881Z,20.07
2022-08-28T02:06:17.976Z,20.07
2022-08-28T02:08:46.835Z,20.07
2022-08-28T02:11:15.209Z,20.12
2022-08-28T02:13:43.069Z,20.11
2022-08-28T02:16:11.480Z,20.11
2022-08-28T02:18:39.619Z,20.13
2022-08-28T02:21:08.481Z,20.09
2022-08-28T02:23:38.243Z,20.08
2022-08-28T02:26:06.743Z,20.10
2022-08-28T02:28:34.893Z,20.13
2022-08-28T02:31:02.689Z,20.10
2022-08-28T02:33:30.206Z,20.08
2022-08-28T02:35:57.782Z,20.12
2022-08-28T02:38:25.354Z,20.11
2022-08-28T02:40:52.919Z,20.14
2022-08-28T02:43:20.412Z,20.08
2022-08-28T02:45:49.408Z,20.12
2022-08-28T02:48:17.624Z,20.16
2022-08-28T02:50:46.596Z,20.14
2022-08-28T02:53:14.268Z,20.14
2022-08-28T02:55:41.762Z,20.11
2022-08-28T02:58:09.926Z,20.15
2022-08-28T03:00:37.728Z,20.14
2022-08-28T03:03:05.435Z,20.12
2022-08-28T03:05:33.242Z,20.07
2022-08-28T03:08:01.073Z,20.07
2022-08-28T03:10:28.701Z,20.12
2022-08-28T03:12:56.175Z,20.17
2022-08-28T03:15:23.935Z,20.25
2022-08-28T03:17:51.528Z,20.25
2022-08-28T03:20:19.244Z,20.32
2022-08-28T03:23:05.637Z,20.37
2022-08-28T03:25:33.277Z,20.41
2022-08-28T03:28:01.673Z,20.40
2022-08-28T03:30:29.515Z,20.39
2022-08-28T03:32:57.024Z,20.42
2022-08-28T03:35:24.683Z,20.46
2022-08-28T03:37:52.815Z,20.44
2022-08-28T03:40:20.571Z,20.42
2022-08-28T03:42:53.033Z,20.42
2022-08-28T03:45:22.086Z,20.38
2022-08-28T03:47:50.851Z,20.34
2022-08-28T03:50:19.768Z,20.32
2022-08-28T03:52:47.697Z,20.26
2022-08-28T03:55:16.787Z,20.29
2022-08-28T03:57:44.551Z,20.30
2022-08-28T04:00:13.358Z,20.26
2022-08-28T04:02:42.822Z,20.29
2022-08-28T04:05:11.297Z,20.26
2022-08-28T04:07:40.169Z,20.19
2022-08-28T04:10:08.079Z,20.19
2022-08-28T04:12:36.994Z,20.13
2022-08-28T04:15:06.963Z,20.16
2022-08-28T04:17:37.985Z,20.17
2022-08-28T04:20:07.167Z,20.23
2022-08-28T04:22:35.485Z,20.20
2022-08-28T04:25:04.198Z,20.24
2022-08-28T04:27:32.033Z,20.23
2022-08-28T04:29:59.579Z,20.27
2022-08-28T04:32:27.176Z,20.27
2022-08-28T04:34:54.750Z,20.25
2022-08-28T04:37:22.946Z,20.27
2022-08-28T04:39:55.697Z,20.27
2022-08-28T04:42:23.477Z,20.26
2022-08-28T04:44:51.160Z,20.32
2022-08-28T04:47:18.635Z,20.33
2022-08-28T04:49:46.136Z,20.36
2022-08-28T04:52:13.662Z,20.37
2022-08-28T04:54:41.375Z,20.39
2022-08-28T04:57:08.938Z,20.41
2022-08-28T04:59:37.111Z,20.37
2022-08-28T05:02:05.723Z,20.38
2022-08-28T05:04:33.207Z,20.44
2022-08-28T05:07:00.845Z,20.49
2022-08-28T05:09:28.724Z,20.57
2022-08-28T05:11:56.567Z,20.71
2022-08-28T05:14:24.282Z,20.86
2022-08-28T05:16:53.091Z,20.99
2022-08-28T05:19:21.621Z,21.08
2022-08-28T05:21:49.133Z,21.22
2022-08-28T05:24:17.309Z,21.36
2022-08-28T05:26:48.293Z,21.53
2022-08-28T05:29:17.693Z,21.68
2022-08-28T05:31:46.382Z,21.87
2022-08-28T05:34:15.243Z,21.95
2022-08-28T05:36:43.069Z,22.08
2022-08-28T05:39:11.880Z,22.26
2022-08-28T05:41:41.907Z,22.38
2022-08-28T05:44:11.757Z,22.51
2022-08-28T05:46:42.643Z,22.60
2022-08-28T05:49:10.679Z,22.67
2022-08-28T05:51:41.272Z,22.76
2022-08-28T05:54:09.744Z,22.91
2022-08-28T05:56:39.461Z,23.04
2022-08-28T05:59:07.696Z,23.22
2022-08-28T06:01:41.293Z,23.31
2022-08-28T06:04:19.104Z,23.41
2022-08-28T06:06:46.922Z,23.56
2022-08-28T06:09:20.159Z,23.73
2022-08-28T06:11:49.723Z,23.83
2022-08-28T06:14:20.636Z,23.92
2022-08-28T06:16:53.052Z,24.07
2022-08-28T06:19:23.116Z,24.21
2022-08-28T06:21:53.941Z,24.27
2022-08-28T06:24:21.619Z,24.45
2022-08-28T06:26:49.434Z,24.51
2022-08-28T06:29:21.022Z,24.72
2022-08-28T06:31:55.250Z,24.96
2022-08-28T06:34:23.089Z,25.22
2022-08-28T06:36:54.032Z,25.54
2022-08-28T06:39:22.517Z,25.80
2022-08-28T06:41:50.455Z,26.11
2022-08-28T06:44:20.247Z,26.48
2022-08-28T06:46:50.121Z,27.23
2022-08-28T06:49:17.939Z,27.50
2022-08-28T06:51:45.673Z,27.47
2022-08-28T06:54:17.268Z,27.66
2022-08-28T06:56:49.232Z,28.02
2022-08-28T06:59:16.831Z,28.80
2022-08-28T07:01:44.723Z,29.27
2022-08-28T07:04:14.574Z,29.28
2022-08-28T07:06:47.091Z,29.06
2022-08-28T07:09:16.105Z,29.18
2022-08-28T07:11:46.862Z,29.63
2022-08-28T07:14:14.345Z,30.23
2022-08-28T07:16:42.201Z,30.61
2022-08-28T07:19:12.041Z,30.86
2022-08-28T07:21:42.536Z,30.79
2022-08-28T07:24:12.417Z,30.16
2022-08-28T07:26:41.836Z,30.17
2022-08-28T07:29:11.456Z,30.11
2022-08-28T07:31:44.998Z,30.65
2022-08-28T07:34:14.010Z,31.11
2022-08-28T07:36:42.690Z,31.20
2022-08-28T07:39:12.907Z,31.42
2022-08-28T07:41:42.797Z,31.46
2022-08-28T07:44:32.020Z,31.51
2022-08-28T07:47:04.123Z,31.63
2022-08-28T07:49:33.875Z,31.66
2022-08-28T07:52:02.301Z,31.60
2022-08-28T07:54:30.014Z,31.33
2022-08-28T07:56:57.845Z,31.12
2022-08-28T07:59:25.465Z,31.13
2022-08-28T08:01:53.864Z,30.94
2022-08-28T08:04:23.695Z,31.07
2022-08-28T08:06:58.095Z,31.12
2022-08-28T08:09:27.140Z,31.11
2022-08-28T08:11:55.154Z,31.04
2022-08-28T08:14:23.500Z,31.01
2022-08-28T08:16:52.556Z,30.94
2022-08-28T08:19:20.611Z,30.86
2022-08-28T08:21:54.870Z,30.64
2022-08-28T08:24:28.494Z,30.22
2022-08-28T08:27:01.149Z,29.87
2022-08-28T08:29:35.892Z,29.46
2022-08-28T08:32:09.979Z,29.14
2022-08-28T08:34:40.511Z,28.90
2022-08-28T08:37:08.569Z,28.74
2022-08-28T08:39:37.699Z,28.59
2022-08-28T08:42:17.662Z,28.45
2022-08-28T08:44:48.413Z,28.30
2022-08-28T08:47:22.595Z,28.23
2022-08-28T08:50:01.206Z,28.12
2022-08-28T08:52:47.583Z,27.97
2022-08-28T08:55:21.124Z,27.79
2022-08-28T08:57:53.582Z,27.76
2022-08-28T09:00:21.235Z,27.48
2022-08-28T09:03:09.881Z,27.46
2022-08-28T09:06:02.115Z,27.30
2022-08-28T09:09:00.479Z,27.29
2022-08-28T09:11:34.318Z,27.23
2022-08-28T09:14:26.537Z,27.17
2022-08-28T09:16:58.362Z,27.15
2022-08-28T09:19:26.481Z,27.09
2022-08-28T09:21:54.471Z,27.10
2022-08-28T09:24:30.617Z,27.09
2022-08-28T09:27:23.865Z,27.07
2022-08-28T09:30:07.600Z,27.04
2022-08-28T09:32:44.416Z,27.05
2022-08-28T09:35:30.011Z,27.01
2022-08-28T09:38:20.717Z,27.04
2022-08-28T09:41:07.122Z,27.03
2022-08-28T09:43:38.007Z,27.03
2022-08-28T09:46:22.486Z,27.04
2022-08-28T09:48:52.542Z,27.03
2022-08-28T09:51:22.844Z,27.05
2022-08-28T09:53:56.577Z,27.02
2022-08-28T09:56:36.479Z,26.99
2022-08-28T09:59:16.296Z,26.99
2022-08-28T10:01:48.880Z,27.01
2022-08-28T10:04:58.938Z,27.00
2022-08-28T10:07:29.505Z,26.96
2022-08-28T10:10:17.080Z,26.93
2022-08-28T10:12:54.169Z,26.92
2022-08-28T10:15:49.606Z,26.95
2022-08-28T10:18:32.231Z,26.92
2022-08-28T10:21:30.566Z,26.93
2022-08-28T10:24:13.515Z,26.94
2022-08-28T10:27:08.776Z,26.92
2022-08-28T10:30:12.495Z,26.88
2022-08-28T10:32:55.321Z,26.81
2022-08-28T10:35:48.871Z,26.82
2022-08-28T10:38:32.457Z,26.79
2022-08-28T10:41:10.355Z,26.79
2022-08-28T10:43:51.609Z,26.85
2022-08-28T10:46:37.554Z,26.98
2022-08-28T10:49:27.103Z,27.11
2022-08-28T10:51:59.660Z,27.08
2022-08-28T10:55:03.446Z,27.20
2022-08-28T10:57:41.639Z,27.26
2022-08-28T11:00:19.380Z,27.27
2022-08-28T11:02:54.479Z,27.25
2022-08-28T11:05:24.817Z,27.18
2022-08-28T11:07:59.680Z,27.16
2022-08-28T11:10:30.238Z,27.18
2022-08-28T11:12:58.751Z,27.19
2022-08-28T11:15:36.341Z,27.24
2022-08-28T11:18:25.334Z,27.22
2022-08-28T11:21:11.109Z,27.24
2022-08-28T11:23:47.802Z,27.17
2022-08-28T11:26:30.293Z,27.06
2022-08-28T11:29:00.911Z,27.08
2022-08-28T11:31:32.635Z,27.09
2022-08-28T11:34:02.550Z,27.02
2022-08-28T11:36:30.065Z,27.06
2022-08-28T11:38:58.248Z,27.02
2022-08-28T11:41:50.683Z,26.89
2022-08-28T11:44:25.615Z,26.77
2022-08-28T11:46:56.815Z,26.50
2022-08-28T11:49:31.953Z,26.49
2022-08-28T11:52:17.791Z,26.53
2022-08-28T11:54:54.384Z,26.62
2022-08-28T11:57:40.882Z,26.68
2022-08-28T12:00:32.961Z,26.59
2022-08-28T12:03:06.792Z,26.42
2022-08-28T12:05:39.984Z,26.21
2022-08-28T12:08:09.774Z,26.01
2022-08-28T12:10:37.223Z,26.05
2022-08-28T12:13:07.560Z,26.07
2022-08-28T12:15:35.015Z,26.06
2022-08-28T12:18:14.954Z,26.12
2022-08-28T12:20:51.522Z,26.28
2022-08-28T12:23:31.732Z,26.31
2022-08-28T12:26:04.251Z,26.17
2022-08-28T12:28:45.695Z,26.30
2022-08-28T12:31:59.195Z,26.40
2022-08-28T12:34:42.147Z,26.59
2022-08-28T12:37:50.981Z,26.67
2022-08-28T12:40:26.395Z,26.82
2022-08-28T12:43:00.340Z,26.93
2022-08-28T12:46:00.333Z,27.01
2022-08-28T12:48:31.715Z,27.11
2022-08-28T12:51:04.217Z,27.08
2022-08-28T12:53:42.050Z,27.01
2022-08-28T12:56:14.532Z,27.00
2022-08-28T12:58:43.887Z,26.98
2022-08-28T13:01:37.548Z,26.97
2022-08-28T13:04:25.545Z,26.99
2022-08-28T13:07:00.375Z,26.97
2022-08-28T13:09:29.253Z,26.85
2022-08-28T13:11:57.057Z,26.67
2022-08-28T13:14:43.916Z,26.56
2022-08-28T13:17:13.709Z,26.47
2022-08-28T13:19:41.597Z,26.50
2022-08-28T13:22:33.852Z,26.59
2022-08-28T13:25:05.387Z,26.63
2022-08-28T13:27:33.227Z,26.62
2022-08-28T13:30:20.879Z,26.59
2022-08-28T13:33:02.501Z,26.39
2022-08-28T13:35:39.114Z,26.33
2022-08-28T13:38:10.367Z,26.35
2022-08-28T13:41:03.101Z,26.42
2022-08-28T13:43:44.567Z,26.54
2022-08-28T13:46:12.396Z,26.61
2022-08-28T13:48:40.880Z,26.64
2022-08-28T13:51:12.008Z,26.58
2022-08-28T13:53:44.292Z,26.39
2022-08-28T13:56:12.522Z,26.36
2022-08-28T13:58:40.259Z,26.29
2022-08-28T14:01:08.086Z,26.17
2022-08-28T14:03:35.799Z,26.08
2022-08-28T14:06:05.064Z,25.71
2022-08-28T14:08:32.985Z,25.70
2022-08-28T14:11:01.771Z,25.66
2022-08-28T14:13:29.543Z,25.60
2022-08-28T14:15:58.065Z,25.27
2022-08-28T14:18:26.299Z,25.07
2022-08-28T14:20:53.959Z,24.73
2022-08-28T14:23:21.681Z,24.50
2022-08-28T14:25:51.043Z,24.77
2022-08-28T14:28:18.839Z,24.46
2022-08-28T14:30:50.275Z,24.35
2022-08-28T14:33:20.598Z,24.40
2022-08-28T14:35:49.281Z,24.21
2022-08-28T14:38:17.402Z,23.96
2022-08-28T14:40:45.420Z,24.32
2022-08-28T14:43:14.430Z,24.67
2022-08-28T14:48:18.841Z,24.54
2022-08-28T14:50:50.066Z,24.53
2022-08-28T14:53:18.114Z,24.66
2022-08-28T14:55:49.192Z,24.96
2022-08-28T14:58:19.213Z,25.18
2022-08-28T15:00:50.505Z,25.28
2022-08-28T15:03:19.709Z,25.45
2022-08-28T15:05:47.935Z,25.64
2022-08-28T15:08:17.511Z,25.72
2022-08-28T15:10:45.277Z,25.79
2022-08-28T15:13:13.410Z,25.84
2022-08-28T15:15:43.354Z,25.86
2022-08-28T15:18:11.948Z,25.90
2022-08-28T15:20:42.312Z,25.89
2022-08-28T15:23:11.539Z,25.85
2022-08-28T15:25:39.541Z,25.70
2022-08-28T15:28:08.398Z,25.50
2022-08-28T15:30:36.972Z,25.39
2022-08-28T15:33:05.293Z,25.23
2022-08-28T15:35:34.527Z,25.11
2022-08-28T15:38:02.720Z,25.01
2022-08-28T15:40:49.459Z,24.85
2022-08-28T15:43:17.427Z,24.82
2022-08-28T15:45:46.226Z,24.72
2022-08-28T15:48:14.021Z,24.70
2022-08-28T15:50:42.045Z,24.76
2022-08-28T15:53:10.348Z,24.75
2022-08-28T15:55:37.906Z,24.70
2022-08-28T16:00:41.091Z,24.65
2022-08-28T16:03:08.864Z,24.62
2022-08-28T16:05:39.613Z,24.57
2022-08-28T16:08:10.045Z,24.52
2022-08-28T16:10:38.066Z,24.48
2022-08-28T16:13:06.765Z,24.48
2022-08-28T16:15:34.837Z,24.40
2022-08-28T16:18:02.414Z,24.30
2022-08-28T16:20:29.946Z,24.28
2022-08-28T16:22:57.469Z,24.21
2022-08-28T16:25:24.979Z,24.19
2022-08-28T16:27:52.542Z,24.20
2022-08-28T16:30:21.204Z,24.24
2022-08-28T16:32:52.350Z,24.20
2022-08-28T16:35:22.130Z,24.20
2022-08-28T16:37:50.439Z,24.19
2022-08-28T16:40:18.455Z,24.09
2022-08-28T16:42:51.570Z,24.10
2022-08-28T16:45:20.405Z,24.10
2022-08-28T16:47:49.134Z,24.03
2022-08-28T16:50:16.691Z,24.00
2022-08-28T16:52:44.458Z,23.97
2022-08-28T16:55:13.282Z,23.96
2022-08-28T16:57:41.285Z,23.91
2022-08-28T17:00:13.533Z,23.89
2022-08-28T17:02:42.488Z,23.97
2022-08-28T17:05:13.088Z,24.02
2022-08-28T17:07:41.127Z,23.94
2022-08-28T17:10:10.697Z,23.81
2022-08-28T17:12:39.365Z,23.67
2022-08-28T17:15:08.726Z,23.47
2022-08-28T17:17:40.051Z,23.54
2022-08-28T17:20:29.363Z,23.56
2022-08-28T17:22:57.186Z,23.52
2022-08-28T17:25:25.933Z,23.40
2022-08-28T17:27:53.770Z,23.35
2022-08-28T17:30:21.929Z,23.47
2022-08-28T17:32:50.057Z,23.55
2022-08-28T17:35:18.152Z,23.51
2022-08-28T17:37:45.976Z,23.27
2022-08-28T17:40:16.782Z,23.04
2022-08-28T17:42:48.025Z,22.96
2022-08-28T17:45:15.945Z,22.90
2022-08-28T17:47:43.614Z,22.97
2022-08-28T17:50:11.926Z,23.09
2022-08-28T17:52:43.112Z,23.14
2022-08-28T17:55:10.876Z,22.88
2022-08-28T17:57:38.732Z,22.77
2022-08-28T18:00:09.266Z,22.90
2022-08-28T18:02:37.052Z,22.89
2022-08-28T18:05:05.724Z,22.81
2022-08-28T18:07:33.992Z,22.82
2022-08-28T18:10:01.915Z,22.92
2022-08-28T18:12:30.343Z,22.84
2022-08-28T18:14:58.084Z,22.90
2022-08-28T18:17:25.733Z,22.96
2022-08-28T18:19:54.208Z,23.00
2022-08-28T18:22:23.661Z,23.00
2022-08-28T18:24:54.493Z,22.96
2022-08-28T18:27:22.818Z,22.82
2022-08-28T18:29:50.657Z,22.94
2022-08-28T18:32:19.202Z,22.93
2022-08-28T18:34:46.958Z,22.86
2022-08-28T18:37:14.753Z,22.90
2022-08-28T18:39:43.228Z,22.88
2022-08-28T18:42:11.939Z,22.95
2022-08-28T18:44:39.693Z,22.83
2022-08-28T18:47:07.464Z,22.75
2022-08-28T18:49:35.215Z,22.79
2022-08-28T18:52:03.386Z,22.82
2022-08-28T18:54:31.399Z,22.82
2022-08-28T18:57:03.921Z,22.68
2022-08-28T18:59:33.391Z,22.70
2022-08-28T19:02:01.711Z,22.48
2022-08-28T19:04:29.516Z,22.27
2022-08-28T19:06:57.391Z,22.11
2022-08-28T19:09:32.102Z,21.98
2022-08-28T19:12:01.043Z,22.04
2022-08-28T19:14:28.892Z,22.23
2022-08-28T19:16:56.838Z,22.32
2022-08-28T19:19:24.839Z,22.17
2022-08-28T19:21:52.560Z,21.98
2022-08-28T19:24:22.621Z,21.96
2022-08-28T19:26:50.254Z,21.70
2022-08-28T19:29:18.152Z,21.67
2022-08-28T19:31:46.562Z,21.81
2022-08-28T19:34:14.439Z,21.96
2022-08-28T19:36:42.453Z,21.97
2022-08-28T19:39:10.314Z,21.91
2022-08-28T19:41:38.910Z,21.91
2022-08-28T19:44:07.596Z,22.06
2022-08-28T19:46:36.315Z,22.14
2022-08-28T19:49:04.959Z,22.14
2022-08-28T19:51:33.045Z,22.19
2022-08-28T19:54:00.876Z,22.04
2022-08-28T19:56:30.399Z,21.97
2022-08-28T19:59:01.476Z,21.94
2022-08-28T20:01:32.829Z,21.81
2022-08-28T20:04:00.715Z,21.72
2022-08-28T20:06:31.617Z,21.72
2022-08-28T20:09:01.305Z,21.75
2022-08-28T20:11:30.428Z,21.78
2022-08-28T20:14:04.439Z,21.86
2022-08-28T20:16:37.000Z,21.88
2022-08-28T20:19:07.848Z,21.94
2022-08-28T20:21:38.323Z,21.84
2022-08-28T20:24:10.315Z,21.67
2022-08-28T20:26:38.157Z,21.55
2022-08-28T20:29:07.880Z,21.73
2022-08-28T20:31:40.548Z,21.56
2022-08-28T20:34:09.830Z,21.65
2022-08-28T20:36:37.783Z,21.75
2022-08-28T20:39:07.411Z,21.83
2022-08-28T20:41:37.257Z,21.87
2022-08-28T20:44:07.730Z,21.88
2022-08-28T20:46:40.685Z,21.82
2022-08-28T20:49:11.242Z,21.85
2022-08-28T20:51:53.153Z,21.88
2022-08-28T20:54:24.465Z,21.90
2022-08-28T20:56:53.593Z,21.95
2022-08-28T20:59:21.891Z,21.95
2022-08-28T21:01:51.477Z,21.93
2022-08-28T21:04:19.885Z,21.90
2022-08-28T21:06:47.677Z,21.88
2022-08-28T21:09:16.433Z,21.84
2022-08-28T21:11:44.157Z,21.77
2022-08-28T21:14:11.949Z,21.78
2022-08-28T21:16:40.539Z,21.73
2022-08-28T21:19:16.694Z,21.75
2022-08-28T21:21:45.378Z,21.79
2022-08-28T21:24:15.441Z,21.82
2022-08-28T21:26:48.644Z,21.79
2022-08-28T21:29:20.023Z,21.77
2022-08-28T21:31:50.160Z,21.73
2022-08-28T21:34:19.500Z,21.64
2022-08-28T21:36:50.565Z,21.66
2022-08-28T21:39:20.720Z,21.65
2022-08-28T21:41:49.451Z,21.60
2022-08-28T21:44:17.662Z,21.60
2022-08-28T21:46:45.666Z,21.60
2022-08-28T21:49:13.215Z,21.64
2022-08-28T21:51:40.856Z,21.65
2022-08-28T21:54:08.669Z,21.43
2022-08-28T21:56:36.229Z,21.42
2022-08-28T21:59:04.087Z,21.54
2022-08-28T22:01:32.133Z,21.52
2022-08-28T22:03:59.787Z,21.44
2022-08-28T22:06:27.347Z,21.31
2022-08-28T22:08:55.987Z,21.38
2022-08-28T22:11:25.419Z,21.34
2022-08-28T22:13:56.896Z,21.23
2022-08-28T22:16:25.671Z,21.15
2022-08-28T22:18:53.815Z,21.24
2022-08-28T22:21:43.775Z,21.32
2022-08-28T22:24:13.341Z,21.30
2022-08-28T22:26:42.533Z,21.18
2022-08-28T22:29:11.541Z,21.26
2022-08-28T22:31:43.898Z,21.24
2022-08-28T22:34:13.818Z,21.30
2022-08-28T22:36:41.405Z,21.27
2022-08-28T22:39:09.362Z,21.27
2022-08-28T22:41:37.644Z,21.17
2022-08-28T22:44:05.499Z,21.20
2022-08-28T22:46:33.252Z,21.27
2022-08-28T22:49:00.924Z,21.28
2022-08-28T22:51:28.430Z,21.28
2022-08-28T22:53:56.436Z,21.27
2022-08-28T22:56:23.991Z,21.28
2022-08-28T22:58:51.459Z,21.26
2022-08-28T23:01:22.302Z,21.24
2022-08-28T23:03:50.232Z,21.27
2022-08-28T23:06:18.568Z,21.26
2022-08-28T23:08:46.096Z,21.30
2022-08-28T23:11:13.800Z,21.28
2022-08-28T23:13:41.448Z,21.29
2022-08-28T23:16:09.012Z,21.14
2022-08-28T23:19:06.014Z,21.13
2022-08-28T23:21:26.444Z,21.04
2022-08-28T23:23:55.137Z,21.10
2022-08-28T23:26:23.102Z,21.05
2022-08-28T23:28:51.145Z,21.05
2022-08-28T23:31:18.861Z,21.05
2022-08-28T23:33:47.048Z,21.05
2022-08-28T23:36:15.391Z,21.06
2022-08-28T23:38:45.054Z,21.04
2022-08-28T23:41:13.318Z,20.98
2022-08-28T23:43:40.948Z,20.92
2022-08-28T23:46:13.546Z,20.84
2022-08-28T23:48:41.411Z,20.81
2022-08-28T23:51:10.139Z,20.76
2022-08-28T23:53:40.936Z,20.82
2022-08-28T23:56:09.582Z,20.82
2022-08-28T23:58:37.331Z,20.83
